sensor_id;sensor_type;location;lat;lon;timestamp;P1;durP1;ratioP1;P2;durP2;ratioP2
13568;SDS011;6856;51.460;7.158;2023-10-08T00:00:49;5.47;;;3.17;;
13568;SDS011;6856;51.460;7.158;2023-10-08T00:03:25;4.80;;;3.10;;
13568;SDS011;6856;51.460;7.158;2023-10-08T00:06:02;5.23;;;2.97;;
13568;SDS011;6856;51.460;7.158;2023-10-08T00:08:44;5.30;;;3.37;;
13568;SDS011;6856;51.460;7.158;2023-10-08T00:11:20;8.03;;;3.80;;
13568;SDS011;6856;51.460;7.158;2023-10-08T00:13:54;6.00;;;3.30;;
13568;SDS011;6856;51.460;7.158;2023-10-08T00:16:28;8.10;;;3.57;;
13568;SDS011;6856;51.460;7.158;2023-10-08T00:19:05;5.50;;;2.97;;
13568;SDS011;6856;51.460;7.158;2023-10-08T00:21:43;6.90;;;3.30;;
13568;SDS011;6856;51.460;7.158;2023-10-08T00:24:20;4.10;;;2.77;;
13568;SDS011;6856;51.460;7.158;2023-10-08T00:27:00;4.60;;;2.90;;
13568;SDS011;6856;51.460;7.158;2023-10-08T00:29:37;4.83;;;2.70;;
13568;SDS011;6856;51.460;7.158;2023-10-08T00:32:14;5.27;;;3.10;;
13568;SDS011;6856;51.460;7.158;2023-10-08T00:34:48;5.13;;;2.73;;
13568;SDS011;6856;51.460;7.158;2023-10-08T00:37:23;4.97;;;2.97;;
13568;SDS011;6856;51.460;7.158;2023-10-08T00:39:58;4.20;;;2.67;;
13568;SDS011;6856;51.460;7.158;2023-10-08T00:42:37;5.30;;;3.10;;
13568;SDS011;6856;51.460;7.158;2023-10-08T00:45:17;5.17;;;3.00;;
13568;SDS011;6856;51.460;7.158;2023-10-08T00:47:51;4.47;;;2.97;;
13568;SDS011;6856;51.460;7.158;2023-10-08T00:50:27;6.57;;;3.40;;
13568;SDS011;6856;51.460;7.158;2023-10-08T00:53:15;5.50;;;2.70;;
13568;SDS011;6856;51.460;7.158;2023-10-08T00:55:53;5.27;;;2.73;;
13568;SDS011;6856;51.460;7.158;2023-10-08T00:58:37;5.03;;;3.00;;
13568;SDS011;6856;51.460;7.158;2023-10-08T01:01:12;3.83;;;2.73;;
13568;SDS011;6856;51.460;7.158;2023-10-08T01:03:48;5.67;;;3.03;;
13568;SDS011;6856;51.460;7.158;2023-10-08T01:06:26;6.07;;;3.90;;
13568;SDS011;6856;51.460;7.158;2023-10-08T01:09:01;7.23;;;3.60;;
13568;SDS011;6856;51.460;7.158;2023-10-08T01:14:45;5.50;;;3.03;;
13568;SDS011;6856;51.460;7.158;2023-10-08T01:17:20;6.07;;;3.03;;
13568;SDS011;6856;51.460;7.158;2023-10-08T01:19:58;6.33;;;3.53;;
13568;SDS011;6856;51.460;7.158;2023-10-08T01:22:43;5.57;;;3.20;;
13568;SDS011;6856;51.460;7.158;2023-10-08T01:25:17;5.00;;;2.90;;
13568;SDS011;6856;51.460;7.158;2023-10-08T01:27:55;5.70;;;3.10;;
13568;SDS011;6856;51.460;7.158;2023-10-08T01:30:32;4.70;;;3.03;;
13568;SDS011;6856;51.460;7.158;2023-10-08T01:33:12;5.33;;;3.47;;
13568;SDS011;6856;51.460;7.158;2023-10-08T01:35:48;4.93;;;3.03;;
13568;SDS011;6856;51.460;7.158;2023-10-08T01:38:23;4.77;;;3.03;;
13568;SDS011;6856;51.460;7.158;2023-10-08T01:40:59;5.33;;;3.13;;
13568;SDS011;6856;51.460;7.158;2023-10-08T01:43:36;5.47;;;2.87;;
13568;SDS011;6856;51.460;7.158;2023-10-08T01:46:10;4.87;;;2.97;;
13568;SDS011;6856;51.460;7.158;2023-10-08T01:48:44;6.50;;;3.27;;
13568;SDS011;6856;51.460;7.158;2023-10-08T01:51:17;5.53;;;2.90;;
13568;SDS011;6856;51.460;7.158;2023-10-08T01:53:58;4.87;;;3.30;;
13568;SDS011;6856;51.460;7.158;2023-10-08T01:56:34;4.93;;;2.80;;
13568;SDS011;6856;51.460;7.158;2023-10-08T01:59:08;6.00;;;3.40;;
13568;SDS011;6856;51.460;7.158;2023-10-08T02:01:43;6.33;;;3.20;;
13568;SDS011;6856;51.460;7.158;2023-10-08T02:04:18;5.97;;;3.70;;
13568;SDS011;6856;51.460;7.158;2023-10-08T02:06:53;5.23;;;2.80;;
13568;SDS011;6856;51.460;7.158;2023-10-08T02:09:28;6.57;;;3.70;;
13568;SDS011;6856;51.460;7.158;2023-10-08T02:12:05;5.23;;;3.23;;
13568;SDS011;6856;51.460;7.158;2023-10-08T02:14:40;7.47;;;3.20;;
13568;SDS011;6856;51.460;7.158;2023-10-08T02:17:15;5.00;;;3.10;;
13568;SDS011;6856;51.460;7.158;2023-10-08T02:19:49;4.93;;;2.60;;
13568;SDS011;6856;51.460;7.158;2023-10-08T02:22:22;6.07;;;3.20;;
13568;SDS011;6856;51.460;7.158;2023-10-08T02:24:58;3.90;;;2.77;;
13568;SDS011;6856;51.460;7.158;2023-10-08T02:27:34;5.77;;;2.83;;
13568;SDS011;6856;51.460;7.158;2023-10-08T02:30:09;5.50;;;3.43;;
13568;SDS011;6856;51.460;7.158;2023-10-08T02:32:44;5.63;;;3.17;;
13568;SDS011;6856;51.460;7.158;2023-10-08T02:35:18;4.30;;;2.67;;
13568;SDS011;6856;51.460;7.158;2023-10-08T02:37:51;5.50;;;3.07;;
13568;SDS011;6856;51.460;7.158;2023-10-08T02:40:28;5.47;;;3.30;;
13568;SDS011;6856;51.460;7.158;2023-10-08T02:43:02;6.97;;;3.33;;
13568;SDS011;6856;51.460;7.158;2023-10-08T02:45:39;4.50;;;3.03;;
13568;SDS011;6856;51.460;7.158;2023-10-08T02:48:22;5.00;;;3.00;;
13568;SDS011;6856;51.460;7.158;2023-10-08T02:50:55;5.93;;;3.53;;
13568;SDS011;6856;51.460;7.158;2023-10-08T02:53:38;4.97;;;3.10;;
13568;SDS011;6856;51.460;7.158;2023-10-08T02:56:15;6.33;;;3.50;;
13568;SDS011;6856;51.460;7.158;2023-10-08T02:58:50;4.87;;;3.10;;
13568;SDS011;6856;51.460;7.158;2023-10-08T03:01:23;4.67;;;2.90;;
13568;SDS011;6856;51.460;7.158;2023-10-08T03:03:57;8.30;;;3.83;;
13568;SDS011;6856;51.460;7.158;2023-10-08T03:06:37;6.20;;;3.07;;
13568;SDS011;6856;51.460;7.158;2023-10-08T03:09:11;5.10;;;3.10;;
13568;SDS011;6856;51.460;7.158;2023-10-08T03:11:46;5.23;;;2.87;;
13568;SDS011;6856;51.460;7.158;2023-10-08T03:14:21;6.33;;;3.40;;
13568;SDS011;6856;51.460;7.158;2023-10-08T03:16:54;5.80;;;2.93;;
13568;SDS011;6856;51.460;7.158;2023-10-08T03:19:38;6.17;;;3.13;;
13568;SDS011;6856;51.460;7.158;2023-10-08T03:22:16;5.33;;;3.70;;
13568;SDS011;6856;51.460;7.158;2023-10-08T03:24:50;6.93;;;3.50;;
13568;SDS011;6856;51.460;7.158;2023-10-08T03:27:30;7.67;;;3.57;;
13568;SDS011;6856;51.460;7.158;2023-10-08T03:30:13;6.50;;;3.90;;
13568;SDS011;6856;51.460;7.158;2023-10-08T03:32:47;6.23;;;3.50;;
13568;SDS011;6856;51.460;7.158;2023-10-08T03:35:26;6.43;;;3.73;;
13568;SDS011;6856;51.460;7.158;2023-10-08T03:38:05;7.23;;;3.47;;
13568;SDS011;6856;51.460;7.158;2023-10-08T03:40:53;8.10;;;3.20;;
13568;SDS011;6856;51.460;7.158;2023-10-08T03:43:38;5.83;;;3.60;;
13568;SDS011;6856;51.460;7.158;2023-10-08T03:46:28;4.93;;;3.13;;
13568;SDS011;6856;51.460;7.158;2023-10-08T03:49:02;7.30;;;3.77;;
13568;SDS011;6856;51.460;7.158;2023-10-08T03:51:38;6.87;;;3.67;;
13568;SDS011;6856;51.460;7.158;2023-10-08T03:54:12;5.63;;;3.03;;
13568;SDS011;6856;51.460;7.158;2023-10-08T03:56:50;8.40;;;3.40;;
13568;SDS011;6856;51.460;7.158;2023-10-08T03:59:25;6.87;;;3.33;;
13568;SDS011;6856;51.460;7.158;2023-10-08T04:02:06;5.23;;;2.73;;
13568;SDS011;6856;51.460;7.158;2023-10-08T04:04:46;4.97;;;3.03;;
13568;SDS011;6856;51.460;7.158;2023-10-08T04:07:25;5.90;;;3.17;;
13568;SDS011;6856;51.460;7.158;2023-10-08T04:10:11;4.77;;;3.00;;
13568;SDS011;6856;51.460;7.158;2023-10-08T04:13:21;4.77;;;3.13;;
13568;SDS011;6856;51.460;7.158;2023-10-08T04:15:56;4.93;;;2.80;;
13568;SDS011;6856;51.460;7.158;2023-10-08T04:18:29;6.37;;;3.10;;
13568;SDS011;6856;51.460;7.158;2023-10-08T04:21:05;5.20;;;2.77;;
13568;SDS011;6856;51.460;7.158;2023-10-08T04:23:44;4.53;;;2.77;;
13568;SDS011;6856;51.460;7.158;2023-10-08T04:26:22;9.83;;;3.63;;
13568;SDS011;6856;51.460;7.158;2023-10-08T04:28:57;5.33;;;3.07;;
13568;SDS011;6856;51.460;7.158;2023-10-08T04:31:35;5.63;;;3.13;;
13568;SDS011;6856;51.460;7.158;2023-10-08T04:34:10;5.37;;;3.07;;
13568;SDS011;6856;51.460;7.158;2023-10-08T04:36:49;5.17;;;3.40;;
13568;SDS011;6856;51.460;7.158;2023-10-08T04:39:25;5.77;;;3.33;;
13568;SDS011;6856;51.460;7.158;2023-10-08T04:42:04;5.43;;;3.27;;
13568;SDS011;6856;51.460;7.158;2023-10-08T04:44:40;4.87;;;3.03;;
13568;SDS011;6856;51.460;7.158;2023-10-08T04:47:15;5.10;;;3.30;;
13568;SDS011;6856;51.460;7.158;2023-10-08T04:50:03;4.83;;;3.10;;
13568;SDS011;6856;51.460;7.158;2023-10-08T04:52:38;6.27;;;3.37;;
13568;SDS011;6856;51.460;7.158;2023-10-08T04:55:17;6.87;;;3.47;;
13568;SDS011;6856;51.460;7.158;2023-10-08T04:58:01;6.10;;;3.40;;
13568;SDS011;6856;51.460;7.158;2023-10-08T05:00:49;6.53;;;3.60;;
13568;SDS011;6856;51.460;7.158;2023-10-08T05:03:32;4.70;;;3.10;;
13568;SDS011;6856;51.460;7.158;2023-10-08T05:06:15;5.53;;;3.07;;
13568;SDS011;6856;51.460;7.158;2023-10-08T05:09:10;6.30;;;3.10;;
13568;SDS011;6856;51.460;7.158;2023-10-08T05:11:45;5.87;;;3.33;;
13568;SDS011;6856;51.460;7.158;2023-10-08T05:14:40;6.30;;;3.53;;
13568;SDS011;6856;51.460;7.158;2023-10-08T05:17:27;5.63;;;3.30;;
13568;SDS011;6856;51.460;7.158;2023-10-08T05:20:17;4.53;;;3.00;;
13568;SDS011;6856;51.460;7.158;2023-10-08T05:23:01;5.23;;;2.97;;
13568;SDS011;6856;51.460;7.158;2023-10-08T05:26:04;7.90;;;3.13;;
13568;SDS011;6856;51.460;7.158;2023-10-08T05:28:40;5.77;;;3.33;;
13568;SDS011;6856;51.460;7.158;2023-10-08T05:31:34;5.13;;;3.20;;
13568;SDS011;6856;51.460;7.158;2023-10-08T05:34:18;7.47;;;3.37;;
13568;SDS011;6856;51.460;7.158;2023-10-08T05:37:07;6.17;;;3.40;;
13568;SDS011;6856;51.460;7.158;2023-10-08T05:40:04;5.43;;;3.20;;
13568;SDS011;6856;51.460;7.158;2023-10-08T05:42:53;6.17;;;2.83;;
13568;SDS011;6856;51.460;7.158;2023-10-08T05:45:32;5.80;;;3.50;;
13568;SDS011;6856;51.460;7.158;2023-10-08T05:48:07;7.73;;;3.43;;
13568;SDS011;6856;51.460;7.158;2023-10-08T05:50:45;6.83;;;3.43;;
13568;SDS011;6856;51.460;7.158;2023-10-08T05:53:45;5.83;;;3.10;;
13568;SDS011;6856;51.460;7.158;2023-10-08T05:56:23;5.20;;;3.27;;
13568;SDS011;6856;51.460;7.158;2023-10-08T05:59:13;5.83;;;3.20;;
13568;SDS011;6856;51.460;7.158;2023-10-08T06:01:49;5.03;;;2.97;;
13568;SDS011;6856;51.460;7.158;2023-10-08T06:04:37;6.87;;;3.50;;
13568;SDS011;6856;51.460;7.158;2023-10-08T06:07:25;5.23;;;2.93;;
13568;SDS011;6856;51.460;7.158;2023-10-08T06:10:21;6.60;;;2.70;;
13568;SDS011;6856;51.460;7.158;2023-10-08T06:13:14;4.80;;;2.80;;
13568;SDS011;6856;51.460;7.158;2023-10-08T06:16:00;5.27;;;2.80;;
13568;SDS011;6856;51.460;7.158;2023-10-08T06:18:37;5.03;;;3.03;;
13568;SDS011;6856;51.460;7.158;2023-10-08T06:21:11;6.13;;;3.37;;
13568;SDS011;6856;51.460;7.158;2023-10-08T06:23:46;5.37;;;3.40;;
13568;SDS011;6856;51.460;7.158;2023-10-08T06:26:23;5.00;;;3.10;;
13568;SDS011;6856;51.460;7.158;2023-10-08T06:28:57;6.13;;;3.53;;
13568;SDS011;6856;51.460;7.158;2023-10-08T06:31:30;4.97;;;3.43;;
13568;SDS011;6856;51.460;7.158;2023-10-08T06:34:07;6.13;;;3.70;;
13568;SDS011;6856;51.460;7.158;2023-10-08T06:36:43;6.23;;;3.33;;
13568;SDS011;6856;51.460;7.158;2023-10-08T06:39:18;5.53;;;3.23;;
13568;SDS011;6856;51.460;7.158;2023-10-08T06:41:58;5.17;;;3.00;;
13568;SDS011;6856;51.460;7.158;2023-10-08T06:44:34;6.30;;;2.83;;
13568;SDS011;6856;51.460;7.158;2023-10-08T06:47:09;6.27;;;3.13;;
13568;SDS011;6856;51.460;7.158;2023-10-08T06:49:43;6.57;;;3.27;;
13568;SDS011;6856;51.460;7.158;2023-10-08T06:52:16;5.80;;;3.10;;
13568;SDS011;6856;51.460;7.158;2023-10-08T06:54:51;6.70;;;3.30;;
13568;SDS011;6856;51.460;7.158;2023-10-08T06:57:28;4.97;;;2.70;;
13568;SDS011;6856;51.460;7.158;2023-10-08T07:00:04;7.97;;;3.47;;
13568;SDS011;6856;51.460;7.158;2023-10-08T07:02:44;4.50;;;2.73;;
13568;SDS011;6856;51.460;7.158;2023-10-08T07:05:19;3.97;;;2.40;;
13568;SDS011;6856;51.460;7.158;2023-10-08T07:07:54;4.97;;;3.13;;
13568;SDS011;6856;51.460;7.158;2023-10-08T07:10:28;5.57;;;3.20;;
13568;SDS011;6856;51.460;7.158;2023-10-08T07:13:03;6.07;;;2.73;;
13568;SDS011;6856;51.460;7.158;2023-10-08T07:15:39;6.60;;;3.17;;
13568;SDS011;6856;51.460;7.158;2023-10-08T07:18:16;6.83;;;3.57;;
13568;SDS011;6856;51.460;7.158;2023-10-08T07:20:57;6.77;;;3.67;;
13568;SDS011;6856;51.460;7.158;2023-10-08T07:23:34;5.13;;;2.93;;
13568;SDS011;6856;51.460;7.158;2023-10-08T07:26:11;5.33;;;3.03;;
13568;SDS011;6856;51.460;7.158;2023-10-08T07:28:47;6.07;;;3.20;;
13568;SDS011;6856;51.460;7.158;2023-10-08T07:31:23;5.57;;;3.00;;
13568;SDS011;6856;51.460;7.158;2023-10-08T07:34:00;5.70;;;3.10;;
13568;SDS011;6856;51.460;7.158;2023-10-08T07:36:47;6.33;;;3.13;;
13568;SDS011;6856;51.460;7.158;2023-10-08T07:39:23;7.23;;;3.70;;
13568;SDS011;6856;51.460;7.158;2023-10-08T07:42:05;6.00;;;3.10;;
13568;SDS011;6856;51.460;7.158;2023-10-08T07:44:41;6.27;;;3.87;;
13568;SDS011;6856;51.460;7.158;2023-10-08T07:47:15;6.97;;;3.80;;
13568;SDS011;6856;51.460;7.158;2023-10-08T07:49:53;7.10;;;4.07;;
13568;SDS011;6856;51.460;7.158;2023-10-08T07:52:26;6.60;;;3.53;;
13568;SDS011;6856;51.460;7.158;2023-10-08T07:55:01;5.97;;;3.57;;
13568;SDS011;6856;51.460;7.158;2023-10-08T07:57:36;7.50;;;3.93;;
13568;SDS011;6856;51.460;7.158;2023-10-08T08:00:12;5.07;;;3.53;;
13568;SDS011;6856;51.460;7.158;2023-10-08T08:02:57;4.80;;;3.00;;
13568;SDS011;6856;51.460;7.158;2023-10-08T08:05:31;3.97;;;2.53;;
13568;SDS011;6856;51.460;7.158;2023-10-08T08:08:08;4.83;;;2.90;;
13568;SDS011;6856;51.460;7.158;2023-10-08T08:10:49;3.23;;;2.33;;
13568;SDS011;6856;51.460;7.158;2023-10-08T08:13:29;3.33;;;2.17;;
13568;SDS011;6856;51.460;7.158;2023-10-08T08:16:04;3.90;;;2.13;;
13568;SDS011;6856;51.460;7.158;2023-10-08T08:18:50;3.00;;;2.00;;
13568;SDS011;6856;51.460;7.158;2023-10-08T08:21:28;4.57;;;2.07;;
13568;SDS011;6856;51.460;7.158;2023-10-08T08:24:03;4.17;;;2.57;;
13568;SDS011;6856;51.460;7.158;2023-10-08T08:26:40;5.83;;;2.40;;
13568;SDS011;6856;51.460;7.158;2023-10-08T08:29:33;5.17;;;2.87;;
13568;SDS011;6856;51.460;7.158;2023-10-08T08:32:17;6.63;;;4.03;;
13568;SDS011;6856;51.460;7.158;2023-10-08T08:34:53;9.30;;;7.47;;
13568;SDS011;6856;51.460;7.158;2023-10-08T08:37:27;9.93;;;8.67;;
13568;SDS011;6856;51.460;7.158;2023-10-08T08:40:02;11.17;;;10.03;;
13568;SDS011;6856;51.460;7.158;2023-10-08T08:42:40;11.63;;;10.47;;
13568;SDS011;6856;51.460;7.158;2023-10-08T08:45:15;10.13;;;8.93;;
13568;SDS011;6856;51.460;7.158;2023-10-08T08:47:54;8.97;;;6.97;;
13568;SDS011;6856;51.460;7.158;2023-10-08T08:50:28;7.37;;;5.80;;
13568;SDS011;6856;51.460;7.158;2023-10-08T08:53:03;6.17;;;3.90;;
13568;SDS011;6856;51.460;7.158;2023-10-08T08:55:37;4.60;;;3.40;;
13568;SDS011;6856;51.460;7.158;2023-10-08T08:58:13;3.93;;;3.03;;
13568;SDS011;6856;51.460;7.158;2023-10-08T09:00:48;4.17;;;2.60;;
13568;SDS011;6856;51.460;7.158;2023-10-08T09:03:29;3.00;;;2.13;;
13568;SDS011;6856;51.460;7.158;2023-10-08T09:06:04;3.37;;;1.83;;
13568;SDS011;6856;51.460;7.158;2023-10-08T09:08:39;4.37;;;2.17;;
13568;SDS011;6856;51.460;7.158;2023-10-08T09:11:18;2.70;;;1.47;;
13568;SDS011;6856;51.460;7.158;2023-10-08T09:13:53;3.27;;;1.87;;
13568;SDS011;6856;51.460;7.158;2023-10-08T09:16:27;3.20;;;2.23;;
13568;SDS011;6856;51.460;7.158;2023-10-08T09:19:02;2.80;;;1.57;;
13568;SDS011;6856;51.460;7.158;2023-10-08T09:21:43;2.40;;;1.70;;
13568;SDS011;6856;51.460;7.158;2023-10-08T09:24:32;2.17;;;1.53;;
13568;SDS011;6856;51.460;7.158;2023-10-08T09:27:08;4.80;;;1.60;;
13568;SDS011;6856;51.460;7.158;2023-10-08T09:29:45;2.77;;;1.77;;
13568;SDS011;6856;51.460;7.158;2023-10-08T09:32:19;2.23;;;1.60;;
13568;SDS011;6856;51.460;7.158;2023-10-08T09:34:57;1.73;;;1.37;;
13568;SDS011;6856;51.460;7.158;2023-10-08T09:37:33;2.63;;;1.70;;
13568;SDS011;6856;51.460;7.158;2023-10-08T09:40:08;3.17;;;1.53;;
13568;SDS011;6856;51.460;7.158;2023-10-08T09:42:52;2.17;;;1.63;;
13568;SDS011;6856;51.460;7.158;2023-10-08T09:45:28;1.53;;;1.43;;
13568;SDS011;6856;51.460;7.158;2023-10-08T09:48:03;1.27;;;1.17;;
13568;SDS011;6856;51.460;7.158;2023-10-08T09:50:46;1.70;;;1.40;;
13568;SDS011;6856;51.460;7.158;2023-10-08T09:53:25;2.10;;;1.63;;
13568;SDS011;6856;51.460;7.158;2023-10-08T09:56:16;1.33;;;1.23;;
13568;SDS011;6856;51.460;7.158;2023-10-08T09:58:53;1.10;;;1.00;;
13568;SDS011;6856;51.460;7.158;2023-10-08T10:01:27;0.90;;;0.80;;
13568;SDS011;6856;51.460;7.158;2023-10-08T10:04:05;0.80;;;0.80;;
13568;SDS011;6856;51.460;7.158;2023-10-08T10:06:44;0.77;;;0.70;;
13568;SDS011;6856;51.460;7.158;2023-10-08T10:09:22;1.50;;;0.83;;
13568;SDS011;6856;51.460;7.158;2023-10-08T10:11:57;0.50;;;0.50;;
13568;SDS011;6856;51.460;7.158;2023-10-08T10:14:40;0.60;;;0.60;;
13568;SDS011;6856;51.460;7.158;2023-10-08T10:17:20;0.50;;;0.47;;
13568;SDS011;6856;51.460;7.158;2023-10-08T10:20:15;0.83;;;0.60;;
13568;SDS011;6856;51.460;7.158;2023-10-08T10:22:50;0.50;;;0.50;;
13568;SDS011;6856;51.460;7.158;2023-10-08T10:25:33;0.63;;;0.50;;
13568;SDS011;6856;51.460;7.158;2023-10-08T10:28:23;0.50;;;0.50;;
13568;SDS011;6856;51.460;7.158;2023-10-08T10:30:58;0.97;;;0.50;;
13568;SDS011;6856;51.460;7.158;2023-10-08T10:33:32;0.90;;;0.53;;
13568;SDS011;6856;51.460;7.158;2023-10-08T10:36:06;1.20;;;0.70;;
13568;SDS011;6856;51.460;7.158;2023-10-08T10:38:42;1.00;;;0.60;;
13568;SDS011;6856;51.460;7.158;2023-10-08T10:41:16;0.80;;;0.40;;
13568;SDS011;6856;51.460;7.158;2023-10-08T10:43:49;0.40;;;0.40;;
13568;SDS011;6856;51.460;7.158;2023-10-08T10:46:24;0.80;;;0.50;;
13568;SDS011;6856;51.460;7.158;2023-10-08T10:49:03;1.37;;;0.67;;
13568;SDS011;6856;51.460;7.158;2023-10-08T10:51:39;0.40;;;0.40;;
13568;SDS011;6856;51.460;7.158;2023-10-08T10:54:16;0.80;;;0.60;;
13568;SDS011;6856;51.460;7.158;2023-10-08T10:56:53;0.50;;;0.50;;
13568;SDS011;6856;51.460;7.158;2023-10-08T10:59:37;0.63;;;0.50;;
13568;SDS011;6856;51.460;7.158;2023-10-08T11:02:14;0.40;;;0.40;;
13568;SDS011;6856;51.460;7.158;2023-10-08T11:05:02;0.70;;;0.43;;
13568;SDS011;6856;51.460;7.158;2023-10-08T11:07:42;0.80;;;0.50;;
13568;SDS011;6856;51.460;7.158;2023-10-08T11:10:38;1.03;;;0.70;;
13568;SDS011;6856;51.460;7.158;2023-10-08T11:13:19;0.80;;;0.60;;
13568;SDS011;6856;51.460;7.158;2023-10-08T11:16:00;0.80;;;0.50;;
13568;SDS011;6856;51.460;7.158;2023-10-08T11:18:42;0.70;;;0.50;;
13568;SDS011;6856;51.460;7.158;2023-10-08T11:21:22;1.60;;;0.50;;
13568;SDS011;6856;51.460;7.158;2023-10-08T11:23:57;1.40;;;0.60;;
13568;SDS011;6856;51.460;7.158;2023-10-08T11:26:36;0.97;;;0.53;;
13568;SDS011;6856;51.460;7.158;2023-10-08T11:29:11;0.63;;;0.60;;
13568;SDS011;6856;51.460;7.158;2023-10-08T11:31:56;0.47;;;0.47;;
13568;SDS011;6856;51.460;7.158;2023-10-08T11:34:32;1.00;;;0.60;;
13568;SDS011;6856;51.460;7.158;2023-10-08T11:37:10;2.13;;;0.70;;
13568;SDS011;6856;51.460;7.158;2023-10-08T11:39:52;0.83;;;0.60;;
13568;SDS011;6856;51.460;7.158;2023-10-08T11:42:31;1.40;;;0.50;;
13568;SDS011;6856;51.460;7.158;2023-10-08T11:45:16;0.77;;;0.53;;
13568;SDS011;6856;51.460;7.158;2023-10-08T11:47:58;0.93;;;0.50;;
13568;SDS011;6856;51.460;7.158;2023-10-08T11:50:35;1.00;;;0.80;;
13568;SDS011;6856;51.460;7.158;2023-10-08T11:53:10;0.83;;;0.50;;
13568;SDS011;6856;51.460;7.158;2023-10-08T11:55:44;1.20;;;0.70;;
13568;SDS011;6856;51.460;7.158;2023-10-08T11:58:21;1.73;;;0.80;;
13568;SDS011;6856;51.460;7.158;2023-10-08T12:01:08;1.90;;;1.17;;
13568;SDS011;6856;51.460;7.158;2023-10-08T12:03:47;1.10;;;0.70;;
13568;SDS011;6856;51.460;7.158;2023-10-08T12:06:21;3.33;;;1.13;;
13568;SDS011;6856;51.460;7.158;2023-10-08T12:08:56;2.50;;;0.93;;
13568;SDS011;6856;51.460;7.158;2023-10-08T12:11:31;2.10;;;0.93;;
13568;SDS011;6856;51.460;7.158;2023-10-08T12:14:06;1.47;;;0.90;;
13568;SDS011;6856;51.460;7.158;2023-10-08T12:16:40;1.27;;;0.67;;
13568;SDS011;6856;51.460;7.158;2023-10-08T12:19:17;1.60;;;0.70;;
13568;SDS011;6856;51.460;7.158;2023-10-08T12:21:52;1.73;;;0.67;;
13568;SDS011;6856;51.460;7.158;2023-10-08T12:24:25;0.70;;;0.60;;
13568;SDS011;6856;51.460;7.158;2023-10-08T12:26:59;1.23;;;0.50;;
13568;SDS011;6856;51.460;7.158;2023-10-08T12:29:36;1.50;;;0.73;;
13568;SDS011;6856;51.460;7.158;2023-10-08T12:32:11;1.57;;;0.60;;
13568;SDS011;6856;51.460;7.158;2023-10-08T12:34:49;2.37;;;0.70;;
13568;SDS011;6856;51.460;7.158;2023-10-08T12:37:25;1.43;;;1.10;;
13568;SDS011;6856;51.460;7.158;2023-10-08T12:39:58;1.90;;;1.00;;
13568;SDS011;6856;51.460;7.158;2023-10-08T12:42:43;0.80;;;0.70;;
13568;SDS011;6856;51.460;7.158;2023-10-08T12:45:18;2.33;;;1.10;;
13568;SDS011;6856;51.460;7.158;2023-10-08T12:47:53;1.10;;;0.83;;
13568;SDS011;6856;51.460;7.158;2023-10-08T12:50:29;1.50;;;1.00;;
13568;SDS011;6856;51.460;7.158;2023-10-08T12:53:13;1.27;;;0.90;;
13568;SDS011;6856;51.460;7.158;2023-10-08T12:55:47;1.97;;;1.00;;
13568;SDS011;6856;51.460;7.158;2023-10-08T12:58:24;1.63;;;0.90;;
13568;SDS011;6856;51.460;7.158;2023-10-08T13:01:02;2.37;;;0.87;;
13568;SDS011;6856;51.460;7.158;2023-10-08T13:03:38;0.93;;;0.80;;
13568;SDS011;6856;51.460;7.158;2023-10-08T13:06:14;1.30;;;0.80;;
13568;SDS011;6856;51.460;7.158;2023-10-08T13:08:54;8.50;;;1.50;;
13568;SDS011;6856;51.460;7.158;2023-10-08T13:11:29;1.97;;;0.77;;
13568;SDS011;6856;51.460;7.158;2023-10-08T13:14:06;1.50;;;0.80;;
13568;SDS011;6856;51.460;7.158;2023-10-08T13:16:41;1.50;;;0.93;;
13568;SDS011;6856;51.460;7.158;2023-10-08T13:19:17;1.20;;;0.80;;
13568;SDS011;6856;51.460;7.158;2023-10-08T13:21:51;0.80;;;0.53;;
13568;SDS011;6856;51.460;7.158;2023-10-08T13:24:24;1.37;;;0.60;;
13568;SDS011;6856;51.460;7.158;2023-10-08T13:27:02;1.00;;;0.67;;
13568;SDS011;6856;51.460;7.158;2023-10-08T13:29:38;0.50;;;0.50;;
13568;SDS011;6856;51.460;7.158;2023-10-08T13:32:13;1.77;;;0.80;;
13568;SDS011;6856;51.460;7.158;2023-10-08T13:34:49;1.63;;;0.90;;
13568;SDS011;6856;51.460;7.158;2023-10-08T13:37:23;2.07;;;1.00;;
13568;SDS011;6856;51.460;7.158;2023-10-08T13:39:56;1.53;;;0.80;;
13568;SDS011;6856;51.460;7.158;2023-10-08T13:42:30;1.83;;;0.73;;
13568;SDS011;6856;51.460;7.158;2023-10-08T13:45:04;2.03;;;0.83;;
13568;SDS011;6856;51.460;7.158;2023-10-08T13:47:43;2.03;;;1.13;;
13568;SDS011;6856;51.460;7.158;2023-10-08T13:50:19;2.03;;;0.97;;
13568;SDS011;6856;51.460;7.158;2023-10-08T13:52:53;1.23;;;0.70;;
13568;SDS011;6856;51.460;7.158;2023-10-08T13:55:27;0.90;;;0.83;;
13568;SDS011;6856;51.460;7.158;2023-10-08T13:58:01;2.97;;;1.17;;
13568;SDS011;6856;51.460;7.158;2023-10-08T14:00:36;2.07;;;1.00;;
13568;SDS011;6856;51.460;7.158;2023-10-08T14:03:11;2.90;;;1.23;;
13568;SDS011;6856;51.460;7.158;2023-10-08T14:05:45;1.53;;;1.10;;
13568;SDS011;6856;51.460;7.158;2023-10-08T14:08:21;2.40;;;1.20;;
13568;SDS011;6856;51.460;7.158;2023-10-08T14:11:00;1.87;;;1.20;;
13568;SDS011;6856;51.460;7.158;2023-10-08T14:13:35;2.13;;;1.37;;
13568;SDS011;6856;51.460;7.158;2023-10-08T14:16:09;2.63;;;1.73;;
13568;SDS011;6856;51.460;7.158;2023-10-08T14:18:47;5.03;;;1.57;;
13568;SDS011;6856;51.460;7.158;2023-10-08T14:21:25;1.70;;;1.30;;
13568;SDS011;6856;51.460;7.158;2023-10-08T14:24:02;2.50;;;1.20;;
13568;SDS011;6856;51.460;7.158;2023-10-08T14:26:48;2.60;;;1.70;;
13568;SDS011;6856;51.460;7.158;2023-10-08T14:29:26;2.10;;;1.00;;
13568;SDS011;6856;51.460;7.158;2023-10-08T14:32:00;1.40;;;0.90;;
13568;SDS011;6856;51.460;7.158;2023-10-08T14:34:42;2.17;;;1.10;;
13568;SDS011;6856;51.460;7.158;2023-10-08T14:37:33;3.27;;;0.80;;
13568;SDS011;6856;51.460;7.158;2023-10-08T14:40:25;1.63;;;0.80;;
13568;SDS011;6856;51.460;7.158;2023-10-08T14:43:17;1.83;;;1.10;;
13568;SDS011;6856;51.460;7.158;2023-10-08T14:45:54;1.03;;;0.80;;
13568;SDS011;6856;51.460;7.158;2023-10-08T14:48:29;1.23;;;0.90;;
13568;SDS011;6856;51.460;7.158;2023-10-08T14:51:08;1.67;;;0.97;;
13568;SDS011;6856;51.460;7.158;2023-10-08T14:53:47;2.10;;;1.20;;
13568;SDS011;6856;51.460;7.158;2023-10-08T14:56:23;1.43;;;1.00;;
13568;SDS011;6856;51.460;7.158;2023-10-08T14:59:00;1.43;;;1.03;;
13568;SDS011;6856;51.460;7.158;2023-10-08T15:01:35;2.43;;;1.57;;
13568;SDS011;6856;51.460;7.158;2023-10-08T15:04:08;1.63;;;1.27;;
13568;SDS011;6856;51.460;7.158;2023-10-08T15:06:45;1.40;;;1.10;;
13568;SDS011;6856;51.460;7.158;2023-10-08T15:09:19;2.37;;;1.20;;
13568;SDS011;6856;51.460;7.158;2023-10-08T15:11:55;2.60;;;1.27;;
13568;SDS011;6856;51.460;7.158;2023-10-08T15:14:29;1.63;;;1.10;;
13568;SDS011;6856;51.460;7.158;2023-10-08T15:17:02;2.00;;;1.43;;
13568;SDS011;6856;51.460;7.158;2023-10-08T15:19:36;1.90;;;1.07;;
13568;SDS011;6856;51.460;7.158;2023-10-08T15:22:12;1.40;;;1.00;;
13568;SDS011;6856;51.460;7.158;2023-10-08T15:24:46;1.50;;;1.10;;
13568;SDS011;6856;51.460;7.158;2023-10-08T15:27:20;1.10;;;1.00;;
13568;SDS011;6856;51.460;7.158;2023-10-08T15:29:55;2.00;;;1.30;;
13568;SDS011;6856;51.460;7.158;2023-10-08T15:32:29;1.80;;;1.10;;
13568;SDS011;6856;51.460;7.158;2023-10-08T15:35:03;2.83;;;2.33;;
13568;SDS011;6856;51.460;7.158;2023-10-08T15:37:42;6.40;;;4.17;;
13568;SDS011;6856;51.460;7.158;2023-10-08T15:40:16;7.13;;;4.37;;
13568;SDS011;6856;51.460;7.158;2023-10-08T15:42:52;4.53;;;2.67;;
13568;SDS011;6856;51.460;7.158;2023-10-08T15:45:28;2.07;;;1.50;;
13568;SDS011;6856;51.460;7.158;2023-10-08T15:48:04;1.53;;;1.07;;
13568;SDS011;6856;51.460;7.158;2023-10-08T15:50:39;3.10;;;1.20;;
13568;SDS011;6856;51.460;7.158;2023-10-08T15:53:15;2.77;;;1.20;;
13568;SDS011;6856;51.460;7.158;2023-10-08T15:55:48;2.23;;;1.30;;
13568;SDS011;6856;51.460;7.158;2023-10-08T15:58:22;2.20;;;1.50;;
13568;SDS011;6856;51.460;7.158;2023-10-08T16:00:56;1.87;;;1.37;;
13568;SDS011;6856;51.460;7.158;2023-10-08T16:03:29;2.00;;;1.30;;
13568;SDS011;6856;51.460;7.158;2023-10-08T16:06:04;2.10;;;1.40;;
13568;SDS011;6856;51.460;7.158;2023-10-08T16:08:39;1.53;;;1.13;;